createdAt,value
2018-12-13T00:02:00.926Z,18.30
2018-12-13T00:04:29.669Z,17.37
2018-12-13T00:06:58.382Z,16.48
2018-12-13T00:09:27.154Z,17.70
2018-12-13T00:11:55.888Z,16.32
2018-12-13T00:14:24.563Z,18.50
2018-12-13T00:16:53.352Z,17.23
2018-12-13T00:19:22.063Z,15.60
2018-12-13T00:21:50.728Z,16.23
2018-12-13T00:24:19.437Z,15.53
2018-12-13T00:26:48.177Z,17.05
2018-12-13T00:29:16.877Z,16.95
2018-12-13T00:31:45.617Z,18.23
2018-12-13T00:34:14.362Z,18.67
2018-12-13T00:36:43.110Z,22.77
2018-12-13T00:39:11.832Z,23.77
2018-12-13T00:41:40.515Z,24.77
2018-12-13T00:44:09.257Z,20.90
2018-12-13T00:46:38.007Z,21.70
2018-12-13T00:49:06.747Z,22.65
2018-12-13T00:51:35.470Z,22.07
2018-12-13T00:54:04.221Z,20.32
2018-12-13T00:56:32.970Z,22.02
2018-12-13T00:59:01.657Z,21.87
2018-12-13T01:01:30.512Z,24.90
2018-12-13T01:03:59.214Z,24.12
2018-12-13T01:06:27.924Z,22.07
2018-12-13T01:08:56.609Z,19.05
2018-12-13T01:11:25.284Z,19.50
2018-12-13T01:13:54.047Z,16.62
2018-12-13T01:16:23.549Z,18.12
2018-12-13T01:18:52.253Z,16.30
2018-12-13T01:21:21.170Z,16.80
2018-12-13T01:23:50.229Z,16.52
2018-12-13T01:26:18.937Z,16.45
2018-12-13T01:28:47.678Z,17.70
2018-12-13T01:31:16.415Z,22.37
2018-12-13T01:33:45.138Z,21.73
2018-12-13T01:36:13.857Z,18.55
2018-12-13T01:38:42.568Z,18.37
2018-12-13T01:41:11.244Z,20.88
2018-12-13T01:43:39.916Z,20.70
2018-12-13T01:46:08.630Z,20.70
2018-12-13T01:48:37.614Z,18.90
2018-12-13T01:51:06.321Z,20.37
2018-12-13T01:53:35.004Z,18.00
2018-12-13T01:56:03.679Z,20.62
2018-12-13T01:58:32.380Z,19.45
2018-12-13T02:01:01.410Z,21.65
2018-12-13T02:03:30.107Z,20.25
2018-12-13T02:05:58.821Z,19.37
2018-12-13T02:08:27.633Z,19.73
2018-12-13T02:10:56.339Z,18.85
2018-12-13T02:13:25.051Z,18.80
2018-12-13T02:15:53.717Z,18.65
2018-12-13T02:18:22.466Z,20.40
2018-12-13T02:20:51.181Z,19.07
2018-12-13T02:23:19.930Z,18.45
2018-12-13T02:25:48.628Z,20.25
2018-12-13T02:28:17.368Z,21.00
2018-12-13T02:30:46.051Z,25.52
2018-12-13T02:33:14.756Z,26.42
2018-12-13T02:35:43.516Z,26.70
2018-12-13T02:38:12.285Z,31.90
2018-12-13T02:40:40.967Z,30.55
2018-12-13T02:43:09.710Z,30.37
2018-12-13T02:45:38.425Z,27.70
2018-12-13T02:48:07.117Z,28.02
2018-12-13T02:50:35.827Z,32.93
2018-12-13T02:53:04.535Z,29.12
2018-12-13T02:55:33.282Z,28.73
2018-12-13T02:58:02.070Z,24.77
2018-12-13T03:00:30.822Z,24.00
2018-12-13T03:02:59.543Z,21.37
2018-12-13T03:05:28.231Z,22.58
2018-12-13T03:07:56.990Z,23.50
2018-12-13T03:10:25.751Z,21.48
2018-12-13T03:12:54.432Z,21.35
2018-12-13T03:15:23.169Z,20.50
2018-12-13T03:17:51.887Z,21.27
2018-12-13T03:20:20.594Z,22.93
2018-12-13T03:22:49.358Z,22.10
2018-12-13T03:25:18.326Z,23.10
2018-12-13T03:27:47.046Z,24.87
2018-12-13T03:30:15.774Z,26.07
2018-12-13T03:32:44.479Z,27.05
2018-12-13T03:35:13.233Z,26.68
2018-12-13T03:37:41.983Z,26.93
2018-12-13T03:40:10.939Z,25.72
2018-12-13T03:42:39.641Z,24.12
2018-12-13T03:45:08.397Z,23.80
2018-12-13T03:47:37.153Z,24.92
2018-12-13T03:50:06.226Z,24.23
2018-12-13T03:52:34.946Z,23.25
2018-12-13T03:55:03.796Z,26.35
2018-12-13T03:57:32.551Z,24.47
2018-12-13T04:00:01.270Z,24.35
2018-12-13T04:02:30.292Z,24.63
2018-12-13T04:04:59.279Z,22.32
2018-12-13T04:07:28.051Z,23.57
2018-12-13T04:09:56.953Z,24.55
2018-12-13T04:12:25.703Z,22.15
2018-12-13T04:14:54.408Z,22.87
2018-12-13T04:17:23.111Z,22.10
2018-12-13T04:19:51.848Z,22.42
2018-12-13T04:22:20.564Z,22.00
2018-12-13T04:24:49.270Z,20.40
2018-12-13T04:27:17.945Z,21.15
2018-12-13T04:29:46.671Z,20.48
2018-12-13T04:32:15.397Z,20.88
2018-12-13T04:34:44.137Z,19.17
2018-12-13T04:37:12.866Z,20.65
2018-12-13T04:39:41.595Z,19.10
2018-12-13T04:42:10.316Z,19.57
2018-12-13T04:44:39.069Z,18.48
2018-12-13T04:47:07.782Z,19.40
2018-12-13T04:49:36.472Z,41.02
2018-12-13T04:52:05.444Z,18.62
2018-12-13T04:54:34.166Z,20.80
2018-12-13T04:57:02.879Z,22.50
2018-12-13T04:59:31.583Z,23.50
2018-12-13T05:02:00.284Z,23.85
2018-12-13T05:04:29.025Z,25.00
2018-12-13T05:06:59.234Z,29.70
2018-12-13T05:09:27.970Z,24.67
2018-12-13T05:11:56.698Z,23.38
2018-12-13T05:14:25.417Z,21.33
2018-12-13T05:16:54.393Z,22.70
2018-12-13T05:19:23.153Z,27.15
2018-12-13T05:21:51.836Z,24.75
2018-12-13T05:24:20.530Z,26.05
2018-12-13T05:26:49.250Z,27.25
2018-12-13T05:29:18.053Z,27.60
2018-12-13T05:31:46.764Z,25.95
2018-12-13T05:34:15.542Z,25.72
2018-12-13T05:36:44.240Z,22.75
2018-12-13T05:39:12.941Z,22.02
2018-12-13T05:41:41.698Z,22.98
2018-12-13T05:44:10.474Z,19.42
2018-12-13T05:46:39.201Z,21.07
2018-12-13T05:49:08.163Z,21.85
2018-12-13T05:51:37.153Z,27.62
2018-12-13T05:54:05.932Z,18.80
2018-12-13T05:56:34.712Z,18.95
2018-12-13T05:59:03.454Z,19.48
2018-12-13T06:01:32.199Z,18.25
2018-12-13T06:04:00.922Z,18.87
2018-12-13T06:06:29.658Z,21.65
2018-12-13T06:08:58.526Z,18.40
2018-12-13T06:11:27.193Z,17.65
2018-12-13T06:13:55.965Z,17.37
2018-12-13T06:16:24.769Z,18.05
2018-12-13T06:18:54.162Z,18.42
2018-12-13T06:21:22.997Z,18.05
2018-12-13T06:23:51.921Z,17.32
2018-12-13T06:26:20.642Z,17.73
2018-12-13T06:28:49.426Z,17.90
2018-12-13T06:31:18.144Z,19.85
2018-12-13T06:33:46.922Z,19.20
2018-12-13T06:36:15.660Z,19.60
2018-12-13T06:38:44.345Z,19.80
2018-12-13T06:41:13.207Z,19.70
2018-12-13T06:43:42.223Z,19.45
2018-12-13T06:46:11.010Z,19.50
2018-12-13T06:48:39.771Z,20.27
2018-12-13T06:51:08.532Z,21.15
2018-12-13T06:53:37.405Z,21.45
2018-12-13T06:56:06.260Z,21.45
2018-12-13T06:58:35.174Z,22.07
2018-12-13T07:01:03.950Z,24.57
2018-12-13T07:03:32.656Z,26.45
2018-12-13T07:06:01.436Z,21.25
2018-12-13T07:08:30.379Z,26.82
2018-12-13T07:10:59.155Z,25.05
2018-12-13T07:13:27.898Z,25.57
2018-12-13T07:15:56.695Z,24.98
2018-12-13T07:18:25.465Z,26.00
2018-12-13T07:20:54.233Z,25.35
2018-12-13T07:23:22.982Z,26.42
2018-12-13T07:25:51.677Z,25.25
2018-12-13T07:28:20.389Z,28.15
2018-12-13T07:30:49.879Z,26.20
2018-12-13T07:33:18.591Z,28.05
2018-12-13T07:35:47.324Z,25.40
2018-12-13T07:38:16.033Z,24.67
2018-12-13T07:40:44.724Z,25.88
2018-12-13T07:43:13.449Z,25.12
2018-12-13T07:45:42.177Z,29.42
2018-12-13T07:48:10.992Z,22.70
2018-12-13T07:50:39.702Z,21.45
2018-12-13T07:53:08.391Z,21.42
2018-12-13T07:55:37.117Z,23.85
2018-12-13T07:58:05.862Z,19.42
2018-12-13T08:00:34.546Z,22.70
2018-12-13T08:03:03.263Z,21.57
2018-12-13T08:05:31.980Z,22.05
2018-12-13T08:08:00.727Z,21.60
2018-12-13T08:10:29.642Z,23.57
2018-12-13T08:12:58.413Z,21.37
2018-12-13T08:15:27.162Z,22.15
2018-12-13T08:17:56.049Z,22.15
2018-12-13T08:20:24.716Z,23.90
2018-12-13T08:22:53.401Z,22.17
2018-12-13T08:25:22.061Z,21.02
2018-12-13T08:27:50.789Z,21.87
2018-12-13T08:30:20.479Z,22.73
2018-12-13T08:32:49.217Z,23.05
2018-12-13T08:35:17.887Z,21.60
2018-12-13T08:37:46.580Z,22.25
2018-12-13T08:40:15.415Z,21.10
2018-12-13T08:42:44.142Z,21.35
2018-12-13T08:45:12.906Z,20.45
2018-12-13T08:47:41.893Z,22.17
2018-12-13T08:50:10.711Z,21.37
2018-12-13T08:52:39.379Z,21.30
2018-12-13T08:55:08.094Z,22.45
2018-12-13T08:57:36.784Z,20.17
2018-12-13T09:00:06.275Z,22.20
2018-12-13T09:02:36.192Z,21.80
2018-12-13T09:05:05.632Z,21.17
2018-12-13T09:07:34.403Z,21.57
2018-12-13T09:10:03.500Z,21.70
2018-12-13T09:12:32.278Z,19.95
2018-12-13T09:15:00.961Z,19.17
2018-12-13T09:17:29.650Z,19.37
2018-12-13T09:19:58.340Z,19.60
2018-12-13T09:22:27.035Z,19.85
2018-12-13T09:24:55.739Z,18.30
2018-12-13T09:27:24.436Z,18.73
2018-12-13T09:29:53.148Z,18.85
2018-12-13T09:32:21.823Z,18.57
2018-12-13T09:34:50.514Z,16.32
2018-12-13T09:37:19.209Z,16.90
2018-12-13T09:39:47.919Z,16.40
2018-12-13T09:42:16.636Z,15.72
2018-12-13T09:44:45.342Z,16.37
2018-12-13T09:47:14.013Z,17.07
2018-12-13T09:49:42.752Z,17.95
2018-12-13T09:52:11.611Z,17.17
2018-12-13T09:54:40.325Z,16.62
2018-12-13T09:57:09.011Z,19.20
2018-12-13T09:59:37.696Z,16.70
2018-12-13T10:02:06.449Z,18.02
2018-12-13T10:04:35.125Z,18.12
2018-12-13T10:07:03.788Z,17.65
2018-12-13T10:09:32.522Z,18.02
2018-12-13T10:12:01.203Z,18.30
2018-12-13T10:14:29.891Z,17.48
2018-12-13T10:16:58.595Z,17.50
2018-12-13T10:19:27.268Z,17.77
2018-12-13T10:21:55.987Z,18.10
2018-12-13T10:24:24.668Z,17.30
2018-12-13T10:26:53.367Z,18.70
2018-12-13T10:29:22.068Z,17.90
2018-12-13T10:31:50.858Z,18.25
2018-12-13T10:34:19.744Z,16.95
2018-12-13T10:36:48.456Z,18.02
2018-12-13T10:39:17.210Z,17.98
2018-12-13T10:41:45.904Z,17.67
2018-12-13T10:44:14.581Z,17.90
2018-12-13T10:46:43.485Z,18.60
2018-12-13T10:49:12.224Z,17.30
2018-12-13T10:51:40.945Z,16.75
2018-12-13T10:54:09.638Z,19.30
2018-12-13T10:56:38.310Z,17.37
2018-12-13T10:59:06.978Z,17.10
2018-12-13T11:01:40.651Z,17.32
2018-12-13T11:04:09.352Z,18.05
2018-12-13T11:06:38.039Z,17.90
2018-12-13T11:09:07.340Z,18.65
2018-12-13T11:11:36.032Z,17.90
2018-12-13T11:14:04.708Z,18.42
2018-12-13T11:16:33.413Z,17.75
2018-12-13T11:19:02.091Z,18.10
2018-12-13T11:21:30.778Z,18.05
2018-12-13T11:23:59.471Z,16.82
2018-12-13T11:26:28.148Z,15.53
2018-12-13T11:29:08.043Z,15.25
2018-12-13T11:31:36.713Z,13.65
2018-12-13T11:34:05.443Z,13.38
2018-12-13T11:36:34.127Z,15.28
2018-12-13T11:39:05.709Z,14.05
2018-12-13T11:41:33.700Z,14.50
2018-12-13T11:44:02.419Z,14.07
2018-12-13T11:46:31.091Z,14.58
2018-12-13T11:49:00.016Z,15.72
2018-12-13T11:51:28.759Z,14.25
2018-12-13T11:53:57.428Z,15.08
2018-12-13T11:56:26.103Z,15.13
2018-12-13T11:58:54.781Z,15.00
2018-12-13T12:01:23.473Z,15.90
2018-12-13T12:03:52.152Z,17.45
2018-12-13T12:06:20.831Z,15.65
2018-12-13T12:08:49.520Z,15.98
2018-12-13T12:11:18.224Z,17.70
2018-12-13T12:13:46.925Z,15.45
2018-12-13T12:16:15.601Z,15.72
2018-12-13T12:18:44.296Z,16.40
2018-12-13T12:21:12.980Z,15.72
2018-12-13T12:23:41.646Z,15.10
2018-12-13T12:26:10.355Z,16.75
2018-12-13T12:28:39.049Z,14.95
2018-12-13T12:31:07.724Z,15.23
2018-12-13T12:33:36.410Z,17.50
2018-12-13T12:36:05.140Z,17.75
2018-12-13T12:38:33.821Z,17.35
2018-12-13T12:41:02.512Z,17.30
2018-12-13T12:43:31.180Z,18.27
2018-12-13T12:45:59.876Z,17.02
2018-12-13T12:48:28.686Z,18.15
2018-12-13T12:50:57.489Z,18.70
2018-12-13T12:53:26.173Z,18.07
2018-12-13T12:55:54.847Z,19.70
2018-12-13T12:58:23.557Z,19.90
2018-12-13T13:00:52.223Z,19.80
2018-12-13T13:03:20.942Z,20.72
2018-12-13T13:05:49.645Z,21.77
2018-12-13T13:08:18.338Z,19.42
2018-12-13T13:10:47.249Z,19.42
2018-12-13T13:13:15.927Z,17.82
2018-12-13T13:15:44.620Z,18.10
2018-12-13T13:18:13.321Z,19.07
2018-12-13T13:20:42.008Z,18.20
2018-12-13T13:23:10.700Z,20.75
2018-12-13T13:25:39.419Z,20.60
2018-12-13T13:28:08.102Z,20.45
2018-12-13T13:30:36.775Z,19.27
2018-12-13T13:33:05.476Z,19.20
2018-12-13T13:35:34.484Z,18.90
2018-12-13T13:38:03.191Z,17.82
2018-12-13T13:40:31.900Z,18.20
2018-12-13T13:43:00.611Z,18.82
2018-12-13T13:45:29.307Z,18.12
2018-12-13T13:47:58.065Z,20.30
2018-12-13T13:50:26.742Z,20.00
2018-12-13T13:52:55.715Z,19.45
2018-12-13T13:55:24.400Z,17.20
2018-12-13T13:57:53.123Z,17.87
2018-12-13T14:00:21.839Z,19.27
2018-12-13T14:02:50.530Z,17.92
2018-12-13T14:05:19.342Z,17.30
2018-12-13T14:07:48.067Z,17.20
2018-12-13T14:10:16.763Z,17.60
2018-12-13T14:12:45.691Z,16.52
2018-12-13T14:15:14.371Z,16.60
2018-12-13T14:17:43.079Z,16.95
2018-12-13T14:20:11.761Z,15.18
2018-12-13T14:22:40.504Z,17.80
2018-12-13T14:25:09.163Z,15.05
2018-12-13T14:27:37.871Z,17.00
2018-12-13T14:30:07.254Z,16.62
2018-12-13T14:32:36.021Z,16.32
2018-12-13T14:35:05.470Z,17.25
2018-12-13T14:37:34.289Z,15.95
2018-12-13T14:40:02.991Z,15.28
2018-12-13T14:42:31.697Z,17.00
2018-12-13T14:45:00.479Z,17.23
2018-12-13T14:47:29.303Z,16.73
2018-12-13T14:49:58.148Z,15.45
2018-12-13T14:52:26.949Z,15.30
2018-12-13T14:54:55.667Z,15.03
2018-12-13T14:57:24.402Z,16.37
2018-12-13T14:59:53.337Z,15.93
2018-12-13T15:02:22.025Z,15.93
2018-12-13T15:04:50.696Z,14.65
2018-12-13T15:07:19.399Z,15.25
2018-12-13T15:09:51.021Z,17.50
2018-12-13T15:12:18.911Z,15.10
2018-12-13T15:14:47.607Z,14.25
2018-12-13T15:17:16.295Z,15.13
2018-12-13T15:19:44.980Z,15.23
2018-12-13T15:22:13.657Z,13.75
2018-12-13T15:24:42.436Z,20.60
2018-12-13T15:27:11.152Z,14.60
2018-12-13T15:29:39.818Z,16.37
2018-12-13T15:32:08.599Z,15.25
2018-12-13T15:34:37.295Z,16.35
2018-12-13T15:37:05.992Z,16.35
2018-12-13T15:39:34.681Z,18.02
2018-12-13T15:42:03.363Z,16.70
2018-12-13T15:44:32.103Z,16.75
2018-12-13T15:47:00.847Z,18.05
2018-12-13T15:49:29.532Z,15.75
2018-12-13T15:51:58.223Z,17.30
2018-12-13T15:54:26.923Z,17.15
2018-12-13T15:56:55.648Z,17.10
2018-12-13T15:59:24.337Z,15.88
2018-12-13T16:01:53.015Z,19.73
2018-12-13T16:04:21.739Z,16.37
2018-12-13T16:06:50.735Z,16.65
2018-12-13T16:09:19.420Z,17.32
2018-12-13T16:11:48.107Z,17.25
2018-12-13T16:14:16.923Z,18.50
2018-12-13T16:16:45.623Z,18.98
2018-12-13T16:19:14.305Z,15.50
2018-12-13T16:21:42.985Z,17.92
2018-12-13T16:24:11.763Z,18.92
2018-12-13T16:26:40.535Z,18.75
2018-12-13T16:29:09.364Z,17.45
2018-12-13T16:31:38.077Z,17.82
2018-12-13T16:34:06.792Z,17.75
2018-12-13T16:36:35.469Z,19.20
2018-12-13T16:39:06.133Z,16.95
2018-12-13T16:41:35.040Z,18.67
2018-12-13T16:44:03.737Z,17.30
2018-12-13T16:46:32.406Z,16.80
2018-12-13T16:49:01.084Z,17.30
2018-12-13T16:51:29.773Z,19.25
2018-12-13T16:53:58.483Z,17.92
2018-12-13T16:56:27.169Z,19.25
2018-12-13T16:58:55.868Z,18.32
2018-12-13T17:01:24.583Z,17.90
2018-12-13T17:03:53.379Z,18.85
2018-12-13T17:06:22.157Z,17.65
2018-12-13T17:08:50.861Z,16.60
2018-12-13T17:11:19.748Z,16.62
2018-12-13T17:13:48.414Z,16.93
2018-12-13T17:16:17.109Z,18.27
2018-12-13T17:18:45.521Z,22.25
2018-12-13T17:21:14.196Z,17.12
2018-12-13T17:23:42.945Z,17.70
2018-12-13T17:26:11.682Z,17.27
2018-12-13T17:28:40.373Z,15.90
2018-12-13T17:31:09.101Z,14.78
2018-12-13T17:33:37.792Z,15.93
2018-12-13T17:36:06.459Z,15.10
2018-12-13T17:38:35.147Z,12.55
2018-12-13T17:41:03.839Z,13.05
2018-12-13T17:43:32.701Z,12.25
2018-12-13T17:46:01.455Z,14.05
2018-12-13T17:48:30.156Z,12.20
2018-12-13T17:50:58.839Z,11.43
2018-12-13T17:53:27.655Z,12.45
2018-12-13T17:55:57.896Z,11.45
2018-12-13T17:58:26.611Z,10.70
2018-12-13T18:00:55.308Z,11.83
2018-12-13T18:03:23.993Z,10.43
2018-12-13T18:05:53.065Z,11.57
2018-12-13T18:08:21.768Z,10.88
2018-12-13T18:10:50.441Z,10.55
2018-12-13T18:13:19.163Z,10.13
2018-12-13T18:15:47.858Z,10.40
2018-12-13T18:18:16.552Z,10.65
2018-12-13T18:20:45.280Z,9.45
2018-12-13T18:23:13.999Z,10.20
2018-12-13T18:25:42.679Z,10.60
2018-12-13T18:28:11.460Z,10.25
2018-12-13T18:30:40.308Z,11.33
2018-12-13T18:33:09.074Z,10.75
2018-12-13T18:35:37.984Z,11.33
2018-12-13T18:38:06.660Z,11.22
2018-12-13T18:40:35.720Z,11.15
2018-12-13T18:43:04.764Z,11.55
2018-12-13T18:45:35.407Z,12.53
2018-12-13T18:48:04.168Z,13.53
2018-12-13T18:50:32.893Z,12.78
2018-12-13T18:53:01.568Z,70.67
2018-12-13T18:55:30.482Z,18.80
2018-12-13T18:57:59.439Z,14.95
2018-12-13T19:00:28.112Z,14.40
2018-12-13T19:02:56.790Z,14.80
2018-12-13T19:05:25.474Z,13.55
2018-12-13T19:07:54.197Z,14.68
2018-12-13T19:10:22.916Z,15.85
2018-12-13T19:12:51.602Z,14.13
2018-12-13T19:15:20.287Z,13.20
2018-12-13T19:17:49.012Z,14.13
2018-12-13T19:20:17.700Z,13.30
2018-12-13T19:22:46.375Z,12.78
2018-12-13T19:25:15.110Z,14.05
2018-12-13T19:27:43.802Z,14.33
2018-12-13T19:30:12.475Z,13.10
2018-12-13T19:32:41.162Z,13.83
2018-12-13T19:35:09.838Z,14.28
2018-12-13T19:37:38.573Z,13.80
2018-12-13T19:40:08.535Z,15.75
2018-12-13T19:42:37.208Z,16.37
2018-12-13T19:45:06.607Z,15.40
2018-12-13T19:47:35.284Z,16.05
2018-12-13T19:50:04.081Z,15.70
2018-12-13T19:52:32.751Z,16.05
2018-12-13T19:55:01.559Z,15.43
2018-12-13T19:57:30.520Z,16.07
2018-12-13T19:59:59.185Z,16.55
2018-12-13T20:02:27.872Z,16.15
2018-12-13T20:04:56.600Z,16.90
2018-12-13T20:07:25.341Z,16.97
2018-12-13T20:09:54.021Z,17.77
2018-12-13T20:12:22.736Z,16.20
2018-12-13T20:14:51.429Z,16.93
2018-12-13T20:17:20.139Z,16.12
2018-12-13T20:19:48.824Z,16.40
2018-12-13T20:22:17.502Z,16.67
2018-12-13T20:24:46.224Z,16.67
2018-12-13T20:27:14.908Z,17.95
2018-12-13T20:29:43.836Z,16.48
2018-12-13T20:32:12.503Z,15.65
2018-12-13T20:34:42.127Z,18.17
2018-12-13T20:37:10.839Z,17.17
2018-12-13T20:39:39.555Z,16.45
2018-12-13T20:42:08.245Z,16.62
2018-12-13T20:44:36.940Z,17.98
2018-12-13T20:47:05.663Z,16.70
2018-12-13T20:49:34.374Z,16.10
2018-12-13T20:52:03.088Z,17.70
2018-12-13T20:54:31.821Z,17.60
2018-12-13T20:57:00.497Z,18.23
2018-12-13T20:59:29.177Z,18.50
2018-12-13T21:01:58.178Z,16.65
2018-12-13T21:04:26.847Z,16.55
2018-12-13T21:07:00.948Z,17.60
2018-12-13T21:09:29.687Z,17.45
2018-12-13T21:11:58.359Z,17.30
2018-12-13T21:14:27.061Z,17.32
2018-12-13T21:16:59.985Z,17.98
2018-12-13T21:19:26.489Z,18.87
2018-12-13T21:21:55.168Z,16.82
2018-12-13T21:24:23.855Z,18.10
2018-12-13T21:26:52.546Z,18.37
2018-12-13T21:29:21.262Z,19.42
2018-12-13T21:31:49.934Z,16.85
2018-12-13T21:34:18.683Z,17.27
2018-12-13T21:36:47.411Z,16.45
2018-12-13T21:39:16.103Z,18.35
2018-12-13T21:41:44.779Z,17.12
2018-12-13T21:44:13.521Z,18.95
2018-12-13T21:46:42.196Z,18.07
2018-12-13T21:49:10.875Z,18.73
2018-12-13T21:51:39.555Z,19.80
2018-12-13T21:54:08.224Z,18.40
2018-12-13T21:56:36.935Z,17.92
2018-12-13T21:59:05.611Z,18.77
2018-12-13T22:01:34.292Z,18.25
2018-12-13T22:04:02.983Z,17.85
2018-12-13T22:06:31.693Z,17.80
2018-12-13T22:09:00.429Z,17.70
2018-12-13T22:11:29.157Z,17.80
2018-12-13T22:13:57.820Z,18.25
2018-12-13T22:16:26.694Z,18.52
2018-12-13T22:18:55.409Z,17.30
2018-12-13T22:21:24.407Z,17.35
2018-12-13T22:23:53.126Z,17.95
2018-12-13T22:26:21.799Z,15.30
2018-12-13T22:28:50.518Z,17.20
2018-12-13T22:31:19.294Z,16.75
2018-12-13T22:33:47.975Z,17.75
2018-12-13T22:36:16.734Z,16.30
2018-12-13T22:38:46.748Z,16.70
2018-12-13T22:41:15.453Z,17.48
2018-12-13T22:43:44.140Z,16.95
2018-12-13T22:46:12.828Z,17.60
2018-12-13T22:48:41.574Z,17.23
2018-12-13T22:51:10.413Z,16.93
2018-12-13T22:53:39.159Z,16.42
2018-12-13T22:56:07.831Z,16.20
2018-12-13T22:58:36.562Z,17.55
2018-12-13T23:01:05.295Z,16.55
2018-12-13T23:03:34.059Z,18.42
2018-12-13T23:06:02.761Z,19.40
2018-12-13T23:08:31.503Z,16.87
2018-12-13T23:11:00.419Z,17.17
2018-12-13T23:13:29.140Z,14.80
2018-12-13T23:15:57.910Z,15.98
2018-12-13T23:18:26.633Z,14.73
2018-12-13T23:20:55.436Z,15.65
2018-12-13T23:23:24.168Z,15.35
2018-12-13T23:25:52.902Z,14.83
2018-12-13T23:28:21.690Z,14.63
2018-12-13T23:30:50.693Z,15.85
2018-12-13T23:33:20.074Z,14.18
2018-12-13T23:35:48.960Z,14.60
2018-12-13T23:38:17.651Z,14.98
2018-12-13T23:40:46.495Z,13.83
2018-12-13T23:43:15.380Z,15.55
2018-12-13T23:45:44.718Z,12.82
2018-12-13T23:48:13.545Z,13.68
2018-12-13T23:50:42.241Z,14.00
2018-12-13T23:53:10.921Z,13.08
2018-12-13T23:55:39.666Z,13.05
2018-12-13T23:58:08.377Z,12.70
